Jj Sky — VRJA6 — position and weather

sailwx.info

Track history (hours):
 
Tides and Currents Weather Stations Pressure Air Temp Water Temp Dewpoint Dewpoint Depression Visibility Wind Speed Wind Dir Waves Ship Positions

Jj Sky

Last reported at 2017-Dec-11 16:58 UTC. Time now 2017-Dec-11 17:22 UTC.
Position N 33°39' E 130°24'.

Length 148 m; draft 8.7 m.

Type: Ship (hazmat cat D). MMSI: 477397500.

Date/timePositionNaut miles runAvg speedWind from/ knotsBaromVisibWave heightAir tempDewpointWater temp
2017-Dec-11 16:58N 33°39' E 130°24'0 0.0
2017-Dec-11 16:27N 33°39' E 130°24'0 0.0
2017-Dec-11 15:57N 33°39' E 130°24'0 0.0
2017-Dec-11 15:27N 33°39' E 130°24'0 0.0
2017-Dec-11 14:57N 33°39' E 130°24'0 0.0
2017-Dec-11 14:26N 33°39' E 130°24'0 0.0
2017-Dec-11 13:56N 33°39' E 130°24'0 0.0
2017-Dec-11 13:26N 33°39' E 130°24'0 0.0
2017-Dec-11 12:56N 33°39' E 130°24'0 0.0
2017-Dec-11 12:26N 33°39' E 130°24'0 0.0
2017-Dec-11 11:55N 33°39' E 130°24'0 0.0
2017-Dec-11 11:25N 33°39' E 130°24'0 0.0
2017-Dec-11 10:55N 33°39' E 130°24'0 0.0
2017-Dec-11 10:25N 33°39' E 130°24'0 0.0
2017-Dec-11 10:01N 33°39' E 130°24'0 0.0
2017-Dec-11 09:30N 33°39' E 130°24'0 0.0
2017-Dec-11 09:00N 33°39' E 130°24'0 0.0
2017-Dec-11 08:30N 33°39' E 130°24'0 0.0
2017-Dec-11 08:00N 33°39' E 130°24'0 0.0
2017-Dec-11 07:29N 33°39' E 130°24'0 0.0
2017-Dec-11 06:59N 33°39' E 130°24'0 0.0
2017-Dec-11 06:29N 33°39' E 130°24'0 0.0
2017-Dec-11 05:59N 33°39' E 130°24'0 0.0
2017-Dec-11 05:29N 33°39' E 130°24'0 0.0
2017-Dec-11 04:58N 33°39' E 130°24'0 0.0
2017-Dec-11 04:28N 33°39' E 130°24'0 0.0
2017-Dec-11 03:57N 33°39' E 130°24'0 0.0
2017-Dec-11 03:27N 33°39' E 130°24'0 0.0
2017-Dec-11 02:57N 33°39' E 130°24'0 0.0
2017-Dec-11 02:27N 33°39' E 130°24'0 0.0
2017-Dec-11 01:56N 33°39' E 130°24'0 0.0
2017-Dec-11 01:26N 33°39' E 130°24'0 0.0
2017-Dec-11 00:56N 33°39' E 130°24'0 0.0
2017-Dec-11 00:26N 33°39' E 130°24'0 0.3
2017-Dec-11 00:01N 33°39' E 130°24'4 7.1
2017-Dec-10 23:30N 33°38' E 130°20'3 6.0
2017-Dec-10 23:00N 33°40' E 130°17'6 8.7
2017-Dec-10 22:18N 33°44' E 130°11'412.5
2017-Dec-10 22:00N 33°44' E 130°07'  
2017-Dec-08 00:11N 31°06' E 122°19'  
2017-Dec-04 10:30N 33°38' E 130°21'3 4.7
2017-Dec-04 09:57N 33°39' E 130°24'0 0.0
2017-Dec-04 09:26N 33°39' E 130°24'0 0.0
2017-Dec-04 08:56N 33°39' E 130°24'0 0.0
2017-Dec-04 08:26N 33°39' E 130°24'0 0.0
2017-Dec-04 07:56N 33°39' E 130°24'0 0.0
2017-Dec-04 07:25N 33°39' E 130°24'0 0.0
2017-Dec-04 06:55N 33°39' E 130°24'0 0.0
2017-Dec-04 06:25N 33°39' E 130°24'0 0.0
2017-Dec-04 05:55N 33°39' E 130°24'0 0.0
2017-Dec-04 05:25N 33°39' E 130°24'0 0.0
2017-Dec-04 05:00N 33°39' E 130°24'0 0.0
2017-Dec-04 04:30N 33°39' E 130°24'0 0.0
2017-Dec-04 04:00N 33°39' E 130°24'0 0.0
2017-Dec-04 03:30N 33°39' E 130°24'0 0.0
2017-Dec-04 03:00N 33°39' E 130°24'0 0.0
2017-Dec-04 02:29N 33°39' E 130°24'0 0.0
2017-Dec-04 01:59N 33°39' E 130°24'0 0.0
2017-Dec-04 01:29N 33°39' E 130°24'0 0.0
2017-Dec-04 00:59N 33°39' E 130°24'0 0.4
2017-Dec-04 00:30N 33°39' E 130°24'4 8.7
2017-Dec-04 00:01N 33°39' E 130°19'611.0
2017-Dec-03 23:29N 33°43' E 130°15'613.7
2017-Dec-03 23:00N 33°43' E 130°07'45210.4
2017-Dec-02 03:33N 31°21' E 121°38'310.8
2017-Dec-02 03:13N 31°23' E 121°35'5 9.4
2017-Dec-02 02:44N 31°26' E 121°30'2 6.6
2017-Dec-02 02:29N 31°27' E 121°29'5 9.4
2017-Dec-02 02:00N 31°30' E 121°25'611.8
2017-Dec-02 01:30N 31°33' E 121°19'813.5
2017-Dec-02 00:56N 31°39' E 121°13'0 0.6
2017-Dec-02 00:26N 31°39' E 121°13'0 0.0
2017-Dec-01 23:50N 31°39' E 121°13'0 0.0
2017-Dec-01 23:26N 31°39' E 121°13'0 0.0
2017-Dec-01 22:53N 31°39' E 121°13'0 0.0
2017-Dec-01 22:26N 31°39' E 121°13'0 0.0
2017-Dec-01 21:55N 31°39' E 121°13'0 0.0
2017-Dec-01 20:31N 31°39' E 121°13'0 0.0
2017-Dec-01 20:13N 31°39' E 121°13'0 0.0
2017-Dec-01 19:49N 31°39' E 121°13'0 0.0
2017-Dec-01 19:19N 31°39' E 121°13'0 0.0
2017-Dec-01 18:55N 31°39' E 121°13'0 0.0
2017-Dec-01 18:28N 31°39' E 121°13'0 0.0
2017-Dec-01 17:57N 31°39' E 121°13'0 0.0
2017-Dec-01 17:30N 31°39' E 121°13'0 0.8
2017-Dec-01 17:00N 31°39' E 121°13'  
Track history (hours):
 
Tides and Currents Weather Stations Pressure Air Temp Water Temp Dewpoint Dewpoint Depression Visibility Wind Speed Wind Dir Waves Ship Positions

Jj Sky

Last reported at 2017-Dec-11 16:58 UTC. Time now 2017-Dec-11 17:22 UTC.
Position N 33°39' E 130°24'.

Length 148 m; draft 8.7 m.

Type: Ship (hazmat cat D). MMSI: 477397500.

Date/timePositionNaut miles runAvg speedWind from/ knotsBaromVisibWave heightAir tempDewpointWater temp
2017-Dec-11 16:58N 33°39' E 130°24'0 0.0
2017-Dec-11 16:27N 33°39' E 130°24'0 0.0
2017-Dec-11 15:57N 33°39' E 130°24'0 0.0
2017-Dec-11 15:27N 33°39' E 130°24'0 0.0
2017-Dec-11 14:57N 33°39' E 130°24'0 0.0
2017-Dec-11 14:26N 33°39' E 130°24'0 0.0
2017-Dec-11 13:56N 33°39' E 130°24'0 0.0
2017-Dec-11 13:26N 33°39' E 130°24'0 0.0
2017-Dec-11 12:56N 33°39' E 130°24'0 0.0
2017-Dec-11 12:26N 33°39' E 130°24'0 0.0
2017-Dec-11 11:55N 33°39' E 130°24'0 0.0
2017-Dec-11 11:25N 33°39' E 130°24'0 0.0
2017-Dec-11 10:55N 33°39' E 130°24'0 0.0
2017-Dec-11 10:25N 33°39' E 130°24'0 0.0
2017-Dec-11 10:01N 33°39' E 130°24'0 0.0
2017-Dec-11 09:30N 33°39' E 130°24'0 0.0
2017-Dec-11 09:00N 33°39' E 130°24'0 0.0
2017-Dec-11 08:30N 33°39' E 130°24'0 0.0
2017-Dec-11 08:00N 33°39' E 130°24'0 0.0
2017-Dec-11 07:29N 33°39' E 130°24'0 0.0
2017-Dec-11 06:59N 33°39' E 130°24'0 0.0
2017-Dec-11 06:29N 33°39' E 130°24'0 0.0
2017-Dec-11 05:59N 33°39' E 130°24'0 0.0
2017-Dec-11 05:29N 33°39' E 130°24'0 0.0
2017-Dec-11 04:58N 33°39' E 130°24'0 0.0
2017-Dec-11 04:28N 33°39' E 130°24'0 0.0
2017-Dec-11 03:57N 33°39' E 130°24'0 0.0
2017-Dec-11 03:27N 33°39' E 130°24'0 0.0
2017-Dec-11 02:57N 33°39' E 130°24'0 0.0
2017-Dec-11 02:27N 33°39' E 130°24'0 0.0
2017-Dec-11 01:56N 33°39' E 130°24'0 0.0
2017-Dec-11 01:26N 33°39' E 130°24'0 0.0
2017-Dec-11 00:56N 33°39' E 130°24'0 0.0
2017-Dec-11 00:26N 33°39' E 130°24'0 0.3
2017-Dec-11 00:01N 33°39' E 130°24'4 7.1
2017-Dec-10 23:30N 33°38' E 130°20'3 6.0
2017-Dec-10 23:00N 33°40' E 130°17'6 8.7
2017-Dec-10 22:18N 33°44' E 130°11'412.5
2017-Dec-10 22:00N 33°44' E 130°07'  
2017-Dec-08 00:11N 31°06' E 122°19'  
2017-Dec-04 10:30N 33°38' E 130°21'3 4.7
2017-Dec-04 09:57N 33°39' E 130°24'0 0.0
2017-Dec-04 09:26N 33°39' E 130°24'0 0.0
2017-Dec-04 08:56N 33°39' E 130°24'0 0.0
2017-Dec-04 08:26N 33°39' E 130°24'0 0.0
2017-Dec-04 07:56N 33°39' E 130°24'0 0.0
2017-Dec-04 07:25N 33°39' E 130°24'0 0.0
2017-Dec-04 06:55N 33°39' E 130°24'0 0.0
2017-Dec-04 06:25N 33°39' E 130°24'0 0.0
2017-Dec-04 05:55N 33°39' E 130°24'0 0.0
2017-Dec-04 05:25N 33°39' E 130°24'0 0.0
2017-Dec-04 05:00N 33°39' E 130°24'0 0.0
2017-Dec-04 04:30N 33°39' E 130°24'0 0.0
2017-Dec-04 04:00N 33°39' E 130°24'0 0.0
2017-Dec-04 03:30N 33°39' E 130°24'0 0.0
2017-Dec-04 03:00N 33°39' E 130°24'0 0.0
2017-Dec-04 02:29N 33°39' E 130°24'0 0.0
2017-Dec-04 01:59N 33°39' E 130°24'0 0.0
2017-Dec-04 01:29N 33°39' E 130°24'0 0.0
2017-Dec-04 00:59N 33°39' E 130°24'0 0.4
2017-Dec-04 00:30N 33°39' E 130°24'4 8.7
2017-Dec-04 00:01N 33°39' E 130°19'611.0
2017-Dec-03 23:29N 33°43' E 130°15'613.7
2017-Dec-03 23:00N 33°43' E 130°07'45210.4
2017-Dec-02 03:33N 31°21' E 121°38'310.8
2017-Dec-02 03:13N 31°23' E 121°35'5 9.4
2017-Dec-02 02:44N 31°26' E 121°30'2 6.6
2017-Dec-02 02:29N 31°27' E 121°29'5 9.4
2017-Dec-02 02:00N 31°30' E 121°25'611.8
2017-Dec-02 01:30N 31°33' E 121°19'813.5
2017-Dec-02 00:56N 31°39' E 121°13'0 0.6
2017-Dec-02 00:26N 31°39' E 121°13'0 0.0
2017-Dec-01 23:50N 31°39' E 121°13'0 0.0
2017-Dec-01 23:26N 31°39' E 121°13'0 0.0
2017-Dec-01 22:53N 31°39' E 121°13'0 0.0
2017-Dec-01 22:26N 31°39' E 121°13'0 0.0
2017-Dec-01 21:55N 31°39' E 121°13'0 0.0
2017-Dec-01 20:31N 31°39' E 121°13'0 0.0
2017-Dec-01 20:13N 31°39' E 121°13'0 0.0
2017-Dec-01 19:49N 31°39' E 121°13'0 0.0
2017-Dec-01 19:19N 31°39' E 121°13'0 0.0
2017-Dec-01 18:55N 31°39' E 121°13'0 0.0
2017-Dec-01 18:28N 31°39' E 121°13'0 0.0
2017-Dec-01 17:57N 31°39' E 121°13'0 0.0
2017-Dec-01 17:30N 31°39' E 121°13'0 0.8
2017-Dec-01 17:00N 31°39' E 121°13'  

Dump ship's entire track history